createdAt,value
2019-05-21T00:00:45.465Z,87.17
2019-05-21T00:03:13.876Z,87.53
2019-05-21T00:05:42.539Z,87.50
2019-05-21T00:08:11.229Z,87.57
2019-05-21T00:10:39.922Z,87.77
2019-05-21T00:13:08.355Z,87.71
2019-05-21T00:15:36.737Z,87.63
2019-05-21T00:18:05.530Z,87.45
2019-05-21T00:20:33.951Z,87.65
2019-05-21T00:23:02.375Z,87.78
2019-05-21T00:25:31.245Z,87.85
2019-05-21T00:28:34.406Z,87.79
2019-05-21T00:31:39.362Z,87.79
2019-05-21T00:34:44.704Z,87.83
2019-05-21T00:37:50.124Z,88.13
2019-05-21T00:40:55.419Z,87.99
2019-05-21T00:43:26.861Z,88.32
2019-05-21T00:45:55.267Z,88.46
2019-05-21T00:48:24.146Z,88.43
2019-05-21T00:50:52.829Z,88.51
2019-05-21T00:53:21.233Z,88.64
2019-05-21T00:55:49.898Z,88.44
2019-05-21T00:58:18.328Z,88.20
2019-05-21T01:00:46.734Z,88.27
2019-05-21T01:03:15.359Z,88.09
2019-05-21T01:05:43.782Z,87.91
2019-05-21T01:08:12.448Z,87.79
2019-05-21T01:10:40.865Z,87.63
2019-05-21T01:13:09.256Z,87.38
2019-05-21T01:15:37.645Z,87.62
2019-05-21T01:18:06.117Z,87.80
2019-05-21T01:20:34.524Z,87.77
2019-05-21T01:23:02.933Z,87.78
2019-05-21T01:25:31.627Z,87.88
2019-05-21T01:28:00.028Z,88.08
2019-05-21T01:30:28.534Z,87.86
2019-05-21T01:32:57.198Z,87.71
2019-05-21T01:35:25.691Z,87.83
2019-05-21T01:37:54.077Z,88.11
2019-05-21T01:40:22.469Z,88.39
2019-05-21T01:42:50.957Z,88.39
2019-05-21T01:45:19.430Z,88.25
2019-05-21T01:47:47.823Z,88.32
2019-05-21T01:50:16.317Z,88.21
2019-05-21T01:52:44.790Z,88.35
2019-05-21T01:55:13.265Z,88.65
2019-05-21T01:57:41.764Z,88.71
2019-05-21T02:00:10.516Z,88.55
2019-05-21T02:02:39.151Z,88.40
2019-05-21T02:05:07.623Z,88.71
2019-05-21T02:07:36.811Z,88.56
2019-05-21T02:10:08.363Z,88.29
2019-05-21T02:12:36.758Z,88.47
2019-05-21T02:15:06.498Z,88.43
2019-05-21T02:17:34.898Z,88.43
2019-05-21T02:20:03.836Z,88.38
2019-05-21T02:22:32.525Z,88.67
2019-05-21T02:25:01.327Z,88.76
2019-05-21T02:27:29.823Z,88.74
2019-05-21T02:29:58.694Z,88.77
2019-05-21T02:32:27.387Z,88.71
2019-05-21T02:34:55.804Z,88.61
2019-05-21T02:37:24.189Z,88.60
2019-05-21T02:39:52.574Z,88.60
2019-05-21T02:42:20.976Z,88.76
2019-05-21T02:44:53.642Z,88.86
2019-05-21T02:47:19.939Z,88.92
2019-05-21T02:49:48.580Z,89.05
2019-05-21T02:52:16.973Z,89.18
2019-05-21T02:54:45.377Z,89.17
2019-05-21T02:57:13.792Z,89.17
2019-05-21T02:59:43.979Z,89.19
2019-05-21T03:02:29.270Z,89.13
2019-05-21T03:04:57.673Z,88.82
2019-05-21T03:07:26.283Z,88.61
2019-05-21T03:09:54.753Z,88.76
2019-05-21T03:12:23.156Z,88.67
2019-05-21T03:14:51.803Z,88.47
2019-05-21T03:17:20.497Z,88.58
2019-05-21T03:19:48.893Z,88.70
2019-05-21T03:22:17.572Z,88.70
2019-05-21T03:24:45.957Z,88.84
2019-05-21T03:27:14.368Z,88.91
2019-05-21T03:29:42.748Z,89.13
2019-05-21T03:32:11.134Z,89.03
2019-05-21T03:34:39.902Z,89.05
2019-05-21T03:37:08.371Z,89.00
2019-05-21T03:39:36.736Z,89.00
2019-05-21T03:42:05.546Z,89.00
2019-05-21T03:44:34.552Z,89.17
2019-05-21T03:47:02.940Z,89.26
2019-05-21T03:49:31.938Z,89.38
2019-05-21T03:52:00.417Z,89.42
2019-05-21T03:54:28.803Z,89.41
2019-05-21T03:56:57.215Z,89.22
2019-05-21T03:59:25.605Z,89.06
2019-05-21T04:01:54.016Z,89.02
2019-05-21T04:04:22.746Z,89.09
2019-05-21T04:06:52.568Z,89.30
2019-05-21T04:09:21.179Z,89.29
2019-05-21T04:11:53.053Z,89.18
2019-05-21T04:14:33.508Z,89.02
2019-05-21T04:17:03.910Z,89.13
2019-05-21T04:19:33.938Z,88.88
2019-05-21T04:22:02.342Z,88.83
2019-05-21T04:24:30.735Z,88.97
2019-05-21T04:26:59.142Z,89.23
2019-05-21T04:29:27.879Z,89.13
2019-05-21T04:31:56.554Z,89.18
2019-05-21T04:34:25.032Z,89.21
2019-05-21T04:37:09.376Z,89.35
2019-05-21T04:39:23.617Z,89.51
2019-05-21T04:41:51.951Z,89.41
2019-05-21T04:44:20.474Z,89.30
2019-05-21T04:46:48.861Z,89.42
2019-05-21T04:49:17.305Z,89.36
2019-05-21T04:51:45.734Z,89.28
2019-05-21T04:54:14.097Z,89.34
2019-05-21T04:56:42.491Z,89.28
2019-05-21T04:59:10.894Z,89.40
2019-05-21T05:01:39.321Z,89.70
2019-05-21T05:04:07.867Z,89.81
2019-05-21T05:06:36.593Z,89.73
2019-05-21T05:09:06.919Z,89.88
2019-05-21T05:11:35.493Z,90.01
2019-05-21T05:14:03.953Z,90.05
2019-05-21T05:16:32.674Z,89.95
2019-05-21T05:19:02.582Z,90.04
2019-05-21T05:21:31.000Z,89.97
2019-05-21T05:23:59.495Z,89.89
2019-05-21T05:26:28.665Z,89.86
2019-05-21T05:28:57.061Z,89.83
2019-05-21T05:31:25.555Z,89.95
2019-05-21T05:33:53.963Z,90.12
2019-05-21T05:36:22.348Z,90.19
2019-05-21T05:38:50.744Z,90.23
2019-05-21T05:41:19.129Z,90.44
2019-05-21T05:43:47.534Z,90.33
2019-05-21T05:46:16.210Z,90.39
2019-05-21T05:48:46.279Z,90.38
2019-05-21T05:51:14.912Z,90.14
2019-05-21T05:53:58.189Z,90.31
2019-05-21T05:56:28.540Z,90.44
2019-05-21T05:58:57.011Z,90.53
2019-05-21T06:01:26.437Z,90.54
2019-05-21T06:03:54.830Z,90.60
2019-05-21T06:06:23.224Z,90.42
2019-05-21T06:08:59.475Z,90.16
2019-05-21T06:11:28.222Z,90.31
2019-05-21T06:13:56.850Z,90.10
2019-05-21T06:16:26.891Z,90.21
2019-05-21T06:18:58.472Z,90.22
2019-05-21T06:21:26.879Z,90.37
2019-05-21T06:23:55.547Z,90.37
2019-05-21T06:26:24.002Z,90.29
2019-05-21T06:28:52.411Z,90.10
2019-05-21T06:31:20.804Z,89.87
2019-05-21T06:33:49.436Z,89.72
2019-05-21T06:36:18.104Z,89.60
2019-05-21T06:38:46.491Z,89.46
2019-05-21T06:41:15.143Z,89.56
2019-05-21T06:43:43.673Z,89.75
2019-05-21T06:46:12.143Z,89.74
2019-05-21T06:48:40.830Z,89.71
2019-05-21T06:51:12.120Z,89.65
2019-05-21T06:53:40.516Z,89.57
2019-05-21T06:56:09.238Z,89.33
2019-05-21T06:58:37.629Z,89.44
2019-05-21T07:01:06.309Z,89.66
2019-05-21T07:03:35.001Z,89.34
2019-05-21T07:06:03.421Z,89.39
2019-05-21T07:08:35.081Z,89.51
2019-05-21T07:11:02.305Z,89.46
2019-05-21T07:13:31.311Z,89.13
2019-05-21T07:16:00.022Z,89.08
2019-05-21T07:18:28.388Z,89.11
2019-05-21T07:20:57.017Z,88.91
2019-05-21T07:23:25.401Z,88.82
2019-05-21T07:25:53.961Z,89.26
2019-05-21T07:28:22.366Z,89.19
2019-05-21T07:30:51.057Z,89.42
2019-05-21T07:33:19.460Z,89.42
2019-05-21T07:35:47.854Z,89.37
2019-05-21T07:38:16.273Z,89.43
2019-05-21T07:40:44.707Z,89.48
2019-05-21T07:43:13.320Z,89.22
2019-05-21T07:45:42.016Z,89.14
2019-05-21T07:48:10.439Z,89.04
2019-05-21T07:50:39.197Z,89.25
2019-05-21T07:53:07.698Z,89.27
2019-05-21T07:55:36.370Z,89.09
2019-05-21T07:58:04.841Z,89.10
2019-05-21T08:00:33.550Z,88.99
2019-05-21T08:03:01.959Z,89.28
2019-05-21T08:05:30.375Z,89.40
2019-05-21T08:07:59.109Z,89.46
2019-05-21T08:10:27.792Z,89.33
2019-05-21T08:12:56.195Z,88.99
2019-05-21T08:15:24.642Z,88.86
2019-05-21T08:17:53.005Z,89.11
2019-05-21T08:20:22.982Z,89.42
2019-05-21T08:22:51.388Z,89.48
2019-05-21T08:25:20.038Z,89.73
2019-05-21T08:27:48.437Z,89.91
2019-05-21T08:30:17.152Z,89.83
2019-05-21T08:32:45.626Z,89.62
2019-05-21T08:35:14.350Z,89.60
2019-05-21T08:37:42.764Z,89.30
2019-05-21T08:40:12.353Z,89.22
2019-05-21T08:42:40.732Z,89.18
2019-05-21T08:45:10.074Z,89.35
2019-05-21T08:47:38.765Z,89.37
2019-05-21T08:50:08.201Z,89.19
2019-05-21T08:52:36.590Z,88.95
2019-05-21T08:55:07.043Z,88.77
2019-05-21T08:57:35.466Z,89.07
2019-05-21T09:00:10.239Z,89.18
2019-05-21T09:02:38.982Z,88.83
2019-05-21T09:05:07.989Z,89.07
2019-05-21T09:07:36.495Z,88.95
2019-05-21T09:10:06.860Z,89.16
2019-05-21T09:12:35.250Z,89.37
2019-05-21T09:15:04.428Z,89.26
2019-05-21T09:17:33.064Z,89.23
2019-05-21T09:20:01.544Z,88.77
2019-05-21T09:22:30.449Z,88.64
2019-05-21T09:24:59.237Z,88.54
2019-05-21T09:27:27.690Z,88.59
2019-05-21T09:29:56.130Z,88.34
2019-05-21T09:32:24.532Z,88.58
2019-05-21T09:34:53.308Z,88.61
2019-05-21T09:37:21.699Z,88.71
2019-05-21T09:39:50.361Z,88.65
2019-05-21T09:42:19.069Z,88.62
2019-05-21T09:44:47.488Z,88.79
2019-05-21T09:47:16.127Z,88.83
2019-05-21T09:49:44.576Z,88.51
2019-05-21T09:52:12.924Z,88.42
2019-05-21T09:54:41.692Z,88.45
2019-05-21T09:57:11.785Z,88.11
2019-05-21T09:59:41.800Z,88.42
2019-05-21T10:02:20.765Z,88.02
2019-05-21T10:04:49.187Z,87.73
2019-05-21T10:07:17.821Z,88.30
2019-05-21T10:09:46.263Z,88.18
2019-05-21T10:12:14.878Z,87.83
2019-05-21T10:14:43.286Z,87.57
2019-05-21T10:17:11.966Z,88.02
2019-05-21T10:19:40.580Z,88.29
2019-05-21T10:22:09.378Z,88.49
2019-05-21T10:24:38.349Z,88.59
2019-05-21T10:27:06.995Z,88.39
2019-05-21T10:29:35.393Z,87.94
2019-05-21T10:32:04.056Z,87.93
2019-05-21T10:34:32.472Z,87.97
2019-05-21T10:37:00.894Z,88.12
2019-05-21T10:39:29.304Z,87.75
2019-05-21T10:41:57.706Z,87.78
2019-05-21T10:44:26.437Z,87.97
2019-05-21T10:46:54.832Z,88.21
2019-05-21T10:49:23.233Z,88.32
2019-05-21T10:51:51.631Z,88.42
2019-05-21T10:54:20.373Z,88.04
2019-05-21T10:56:49.006Z,88.20
2019-05-21T10:59:17.645Z,88.20
2019-05-21T11:01:50.405Z,88.05
2019-05-21T11:04:20.497Z,88.01
2019-05-21T11:06:49.115Z,88.07
2019-05-21T11:09:19.229Z,87.94
2019-05-21T11:11:47.633Z,87.92
2019-05-21T11:14:16.558Z,88.21
2019-05-21T11:16:44.959Z,88.31
2019-05-21T11:19:13.534Z,88.08
2019-05-21T11:21:42.008Z,88.27
2019-05-21T11:24:10.432Z,88.48
2019-05-21T11:26:38.914Z,88.27
2019-05-21T11:29:07.318Z,88.34
2019-05-21T11:31:35.793Z,88.89
2019-05-21T11:34:04.745Z,88.95
2019-05-21T11:36:33.126Z,88.88
2019-05-21T11:39:01.809Z,88.71
2019-05-21T11:41:30.500Z,88.92
2019-05-21T11:43:58.901Z,89.10
2019-05-21T11:46:27.295Z,89.22
2019-05-21T11:48:55.787Z,89.25
2019-05-21T11:51:24.200Z,89.43
2019-05-21T11:53:52.834Z,89.39
2019-05-21T11:56:21.236Z,88.75
2019-05-21T11:58:49.629Z,88.67
2019-05-21T12:01:18.099Z,88.76
2019-05-21T12:03:46.776Z,88.71
2019-05-21T12:06:15.156Z,88.93
2019-05-21T12:08:56.198Z,88.92
2019-05-21T12:11:13.799Z,89.03
2019-05-21T12:13:42.547Z,88.99
2019-05-21T12:16:10.952Z,88.93
2019-05-21T12:18:39.642Z,88.53
2019-05-21T12:21:08.137Z,88.67
2019-05-21T12:23:36.534Z,88.84
2019-05-21T12:26:05.289Z,89.04
2019-05-21T12:28:33.942Z,89.42
2019-05-21T12:31:02.370Z,89.31
2019-05-21T12:33:34.708Z,89.76
2019-05-21T12:36:00.936Z,89.59
2019-05-21T12:38:29.403Z,89.13
2019-05-21T12:40:57.921Z,88.94
2019-05-21T12:43:26.316Z,88.87
2019-05-21T12:45:54.800Z,88.48
2019-05-21T12:48:23.468Z,88.43
2019-05-21T12:50:52.010Z,88.76
2019-05-21T12:53:20.460Z,88.79
2019-05-21T12:55:48.988Z,88.77
2019-05-21T12:58:17.446Z,88.37
2019-05-21T13:00:45.893Z,88.50
2019-05-21T13:03:14.347Z,88.96
2019-05-21T13:05:42.831Z,89.13
2019-05-21T13:08:11.340Z,89.07
2019-05-21T13:10:39.774Z,89.20
2019-05-21T13:13:08.382Z,89.51
2019-05-21T13:15:40.895Z,89.62
2019-05-21T13:18:09.934Z,89.23
2019-05-21T13:20:38.778Z,89.01
2019-05-21T13:23:07.342Z,89.18
2019-05-21T13:25:36.806Z,89.45
2019-05-21T13:28:05.475Z,89.60
2019-05-21T13:30:33.960Z,89.31
2019-05-21T13:33:02.489Z,89.43
2019-05-21T13:35:31.027Z,89.16
2019-05-21T13:38:00.875Z,89.03
2019-05-21T13:40:31.596Z,89.27
2019-05-21T13:43:03.273Z,89.11
2019-05-21T13:45:31.707Z,89.31
2019-05-21T13:48:00.084Z,89.34
2019-05-21T13:50:28.631Z,89.62
2019-05-21T13:52:57.404Z,89.53
2019-05-21T13:55:25.921Z,89.38
2019-05-21T13:57:54.384Z,88.93
2019-05-21T14:00:30.718Z,88.94
2019-05-21T14:03:02.093Z,89.07
2019-05-21T14:05:31.157Z,89.22
2019-05-21T14:08:04.718Z,89.19
2019-05-21T14:10:33.662Z,89.01
2019-05-21T14:13:02.537Z,89.09
2019-05-21T14:15:30.948Z,88.71
2019-05-21T14:18:02.537Z,89.23
2019-05-21T14:20:31.200Z,89.25
2019-05-21T14:22:59.600Z,88.97
2019-05-21T14:25:32.481Z,88.90
2019-05-21T14:28:06.192Z,89.09
2019-05-21T14:30:32.723Z,88.82
2019-05-21T14:33:02.098Z,89.30
2019-05-21T14:35:30.589Z,89.05
2019-05-21T14:37:59.071Z,89.04
2019-05-21T14:40:32.807Z,88.81
2019-05-21T14:43:00.930Z,88.81
2019-05-21T14:45:33.776Z,88.82
2019-05-21T14:47:59.927Z,88.69
2019-05-21T14:50:28.468Z,88.71
2019-05-21T14:52:56.854Z,88.50
2019-05-21T14:55:25.278Z,88.48
2019-05-21T14:57:53.759Z,88.51
2019-05-21T15:00:29.388Z,88.64
2019-05-21T15:02:57.840Z,88.49
2019-05-21T15:05:26.226Z,88.43
2019-05-21T15:07:54.687Z,88.41
2019-05-21T15:10:23.327Z,88.53
2019-05-21T15:12:51.751Z,88.39
2019-05-21T15:15:20.215Z,88.56
2019-05-21T15:17:48.700Z,88.31
2019-05-21T15:20:31.101Z,88.53
2019-05-21T15:22:59.483Z,88.58
2019-05-21T15:25:27.982Z,88.57
2019-05-21T15:27:56.458Z,88.75
2019-05-21T15:30:24.851Z,88.81
2019-05-21T15:32:53.259Z,88.61
2019-05-21T15:35:21.719Z,88.28
2019-05-21T15:37:50.486Z,88.06
2019-05-21T15:40:19.478Z,87.94
2019-05-21T15:42:52.504Z,87.98
2019-05-21T15:45:18.333Z,87.65
2019-05-21T15:47:46.728Z,87.96
2019-05-21T15:50:15.858Z,88.20
2019-05-21T15:52:44.259Z,88.12
2019-05-21T15:55:13.294Z,88.25
2019-05-21T15:57:41.694Z,88.41
2019-05-21T16:00:13.211Z,88.42
2019-05-21T16:02:41.647Z,88.58
2019-05-21T16:05:10.581Z,88.46
2019-05-21T16:07:38.988Z,88.45
2019-05-21T16:10:10.941Z,88.43
2019-05-21T16:12:39.428Z,88.63
2019-05-21T16:15:08.185Z,88.16
2019-05-21T16:17:36.994Z,88.24
2019-05-21T16:20:08.968Z,88.33
2019-05-21T16:22:37.351Z,88.46
2019-05-21T16:25:07.932Z,88.23
2019-05-21T16:27:36.336Z,88.50
2019-05-21T16:30:07.854Z,88.16
2019-05-21T16:32:36.334Z,88.50
2019-05-21T16:35:09.221Z,88.60
2019-05-21T16:37:37.986Z,88.53
2019-05-21T16:40:10.176Z,88.90
2019-05-21T16:42:38.569Z,88.67
2019-05-21T16:45:08.723Z,88.71
2019-05-21T16:47:45.824Z,88.90
2019-05-21T16:50:08.236Z,88.82
2019-05-21T16:52:37.922Z,88.90
2019-05-21T16:55:09.037Z,88.90
2019-05-21T16:57:37.533Z,89.00
2019-05-21T17:00:10.242Z,88.88
2019-05-21T17:02:43.606Z,88.57
2019-05-21T17:05:13.975Z,88.84
2019-05-21T17:07:42.362Z,88.53
2019-05-21T17:10:11.003Z,88.45
2019-05-21T17:12:39.407Z,88.56
2019-05-21T17:15:14.236Z,88.83
2019-05-21T17:17:45.694Z,88.69
2019-05-21T17:20:28.624Z,88.98
2019-05-21T17:22:50.915Z,88.87
2019-05-21T17:25:21.501Z,88.55
2019-05-21T17:27:50.199Z,88.56
2019-05-21T17:30:22.972Z,88.51
2019-05-21T17:32:51.644Z,88.41
2019-05-21T17:35:20.185Z,88.37
2019-05-21T17:37:48.920Z,88.43
2019-05-21T17:40:17.887Z,88.55
2019-05-21T17:42:46.445Z,88.55
2019-05-21T17:45:15.401Z,88.77
2019-05-21T17:47:43.809Z,88.51
2019-05-21T17:50:13.063Z,88.69
2019-05-21T17:52:41.614Z,88.38
2019-05-21T17:55:10.253Z,88.60
2019-05-21T17:57:38.750Z,88.71
2019-05-21T18:00:10.116Z,88.68
2019-05-21T18:02:40.399Z,88.71
2019-05-21T18:05:10.315Z,88.54
2019-05-21T18:07:39.651Z,88.53
2019-05-21T18:10:09.961Z,88.69
2019-05-21T18:12:38.732Z,88.68
2019-05-21T18:15:10.173Z,88.70
2019-05-21T18:17:39.294Z,88.90
2019-05-21T18:20:08.500Z,88.88
2019-05-21T18:22:38.933Z,88.76
2019-05-21T18:25:08.242Z,88.83
2019-05-21T18:27:37.177Z,88.64
2019-05-21T18:30:07.879Z,88.80
2019-05-21T18:32:36.947Z,89.29
2019-05-21T18:35:08.957Z,88.88
2019-05-21T18:37:38.904Z,88.58
2019-05-21T18:40:09.372Z,88.71
2019-05-21T18:42:37.785Z,89.04
2019-05-21T18:45:11.013Z,88.91
2019-05-21T18:47:39.492Z,89.11
2019-05-21T18:50:11.576Z,88.90
2019-05-21T18:52:40.052Z,89.02
2019-05-21T18:55:10.180Z,89.00
2019-05-21T18:57:38.603Z,88.92
2019-05-21T19:00:11.718Z,88.97
2019-05-21T19:02:40.447Z,88.82
2019-05-21T19:05:09.634Z,88.95
2019-05-21T19:07:38.023Z,89.01
2019-05-21T19:10:10.635Z,89.02
2019-05-21T19:12:39.671Z,88.88
2019-05-21T19:15:09.923Z,88.86
2019-05-21T19:17:38.427Z,88.70
2019-05-21T19:20:10.366Z,88.69
2019-05-21T19:22:38.819Z,88.70
2019-05-21T19:25:08.148Z,88.83
2019-05-21T19:27:36.528Z,88.90
2019-05-21T19:30:07.232Z,88.95
2019-05-21T19:32:35.807Z,89.00
2019-05-21T19:35:05.547Z,89.32
2019-05-21T19:37:34.011Z,89.15
2019-05-21T19:40:03.092Z,89.12
2019-05-21T19:42:31.648Z,88.90
2019-05-21T19:45:01.148Z,88.95
2019-05-21T19:47:29.505Z,89.00
2019-05-21T19:49:59.472Z,88.90
2019-05-21T19:52:27.935Z,88.95
2019-05-21T19:54:56.430Z,88.74
2019-05-21T20:00:43.248Z,89.00
2019-05-21T20:03:12.675Z,89.21
2019-05-21T20:05:41.066Z,89.30
2019-05-21T20:08:10.065Z,89.02
2019-05-21T20:10:38.566Z,89.15
2019-05-21T20:13:07.227Z,88.95
2019-05-21T20:15:35.687Z,89.10
2019-05-21T20:18:07.556Z,89.37
2019-05-21T20:20:35.038Z,89.32
2019-05-21T20:23:08.270Z,89.38
2019-05-21T20:25:35.433Z,89.30
2019-05-21T20:28:05.637Z,89.43
2019-05-21T20:30:34.701Z,89.35
2019-05-21T20:33:03.104Z,89.42
2019-05-21T20:35:31.978Z,89.73
2019-05-21T20:38:00.365Z,89.75
2019-05-21T20:40:29.045Z,89.55
2019-05-21T20:42:58.077Z,89.46
2019-05-21T20:45:27.803Z,89.84
2019-05-21T20:47:57.629Z,89.36
2019-05-21T20:50:26.292Z,89.10
2019-05-21T20:52:54.716Z,88.74
2019-05-21T20:55:24.044Z,88.94
2019-05-21T20:57:53.274Z,89.08
2019-05-21T21:00:25.155Z,89.22
2019-05-21T21:02:53.628Z,89.09
2019-05-21T21:05:22.253Z,89.02
2019-05-21T21:07:51.179Z,89.00
2019-05-21T21:10:19.811Z,89.10
2019-05-21T21:12:48.575Z,89.11
2019-05-21T21:15:17.184Z,88.75
2019-05-21T21:17:45.940Z,88.62
2019-05-21T21:20:14.892Z,88.41
2019-05-21T21:22:43.450Z,88.77
2019-05-21T21:25:12.539Z,88.52
2019-05-21T21:27:41.780Z,88.37
2019-05-21T21:30:10.789Z,88.44
2019-05-21T21:32:39.418Z,88.49
2019-05-21T21:35:10.014Z,88.58
2019-05-21T21:37:38.580Z,88.81
2019-05-21T21:40:10.831Z,88.58
2019-05-21T21:42:40.603Z,88.41
2019-05-21T21:45:09.918Z,88.56
2019-05-21T21:47:39.749Z,88.35
2019-05-21T21:50:18.751Z,88.69
2019-05-21T21:52:47.782Z,88.50
2019-05-21T21:55:17.826Z,88.55
2019-05-21T21:57:46.497Z,88.40
2019-05-21T22:00:49.927Z,88.58
2019-05-21T22:03:20.202Z,88.50
2019-05-21T22:05:49.506Z,88.86
2019-05-21T22:08:18.086Z,89.07
2019-05-21T22:10:46.605Z,88.83
2019-05-21T22:13:15.073Z,88.49
2019-05-21T22:15:43.463Z,88.89
2019-05-21T22:18:14.385Z,89.14
2019-05-21T22:20:43.519Z,89.48
2019-05-21T22:23:12.857Z,89.50
2019-05-21T22:25:41.620Z,89.26
2019-05-21T22:28:10.268Z,89.23
2019-05-21T22:30:38.978Z,89.24
2019-05-21T22:33:07.564Z,89.28
2019-05-21T22:35:36.348Z,89.11
2019-05-21T22:38:04.745Z,89.04
2019-05-21T22:40:33.521Z,89.01
2019-05-21T22:43:01.932Z,89.09
2019-05-21T22:45:30.485Z,89.16
2019-05-21T22:47:59.181Z,89.40
2019-05-21T22:50:27.963Z,89.36
2019-05-21T22:52:56.345Z,88.96
2019-05-21T22:55:25.091Z,89.16
2019-05-21T22:57:53.941Z,88.85
2019-05-21T23:00:22.934Z,88.60
2019-05-21T23:02:52.045Z,88.65
2019-05-21T23:05:23.000Z,88.64
2019-05-21T23:07:50.555Z,88.27
2019-05-21T23:10:20.061Z,87.88
2019-05-21T23:12:48.589Z,88.06
2019-05-21T23:15:24.858Z,88.03
2019-05-21T23:17:47.813Z,88.16
2019-05-21T23:20:17.022Z,88.25
2019-05-21T23:22:47.235Z,88.11
2019-05-21T23:25:17.035Z,88.33
2019-05-21T23:27:45.890Z,87.97
2019-05-21T23:30:16.247Z,88.00
2019-05-21T23:32:45.425Z,88.25
2019-05-21T23:35:14.312Z,88.09
2019-05-21T23:37:46.215Z,87.92
2019-05-21T23:40:17.340Z,88.35
2019-05-21T23:42:47.058Z,88.34
2019-05-21T23:45:15.671Z,88.04
2019-05-21T23:47:44.054Z,87.83
2019-05-21T23:50:15.057Z,87.94
2019-05-21T23:52:44.233Z,87.98
2019-05-21T23:55:14.460Z,87.87
2019-05-21T23:57:43.119Z,88.03
